Far Niente — 6YST8 — position and weather

sailwx.info

Track history (hours):
 
Tides and Currents Weather Stations Pressure Air Temp Water Temp Dewpoint Dewpoint Depression Visibility Wind Speed Wind Dir Waves Ship Positions

Far Niente

Last reported at 2018-Feb-23 06:30 UTC. Time now 2018-Feb-23 06:59 UTC.
Position N 25°48' W 080°09'.

Length 34 m.

Type: Pleasure craft. MMSI: 339511000.

Date/timePositionNaut miles runAvg speedWind from/ knotsBaromVisibWave heightAir tempDewpointWater temp
2018-Feb-23 06:30N 25°48' W 080°09'0 0.0
2018-Feb-23 05:48N 25°48' W 080°09'0 0.0
2018-Feb-23 05:30N 25°48' W 080°09'0 0.0
2018-Feb-23 05:00N 25°48' W 080°09'0 0.0
2018-Feb-23 04:00N 25°48' W 080°09'0 0.0
2018-Feb-23 03:21N 25°48' W 080°09'0 0.0
2018-Feb-23 03:00N 25°48' W 080°09'0 0.0
2018-Feb-23 02:30N 25°48' W 080°09'0 0.0
2018-Feb-23 01:35N 25°48' W 080°09'0 0.0
2018-Feb-23 01:20N 25°48' W 080°09'0 0.0
2018-Feb-23 00:50N 25°48' W 080°09'0 0.0
2018-Feb-23 00:23N 25°48' W 080°09'0 0.0
2018-Feb-22 23:50N 25°48' W 080°09'0 0.0
2018-Feb-22 23:23N 25°48' W 080°09'0 0.0
2018-Feb-22 22:06N 25°48' W 080°09'0 0.0
2018-Feb-22 21:54N 25°48' W 080°09'0 0.0
2018-Feb-22 21:23N 25°48' W 080°09'0 0.0
2018-Feb-22 20:56N 25°48' W 080°09'0 0.0
2018-Feb-22 20:27N 25°48' W 080°09'0 0.0
2018-Feb-22 19:56N 25°48' W 080°09'0 0.0
2018-Feb-22 19:11N 25°48' W 080°09'0 0.0
2018-Feb-22 18:44N 25°48' W 080°09'0 0.0
2018-Feb-22 18:26N 25°48' W 080°09'0 0.0
2018-Feb-22 17:56N 25°48' W 080°09'0 0.0
2018-Feb-22 17:29N 25°48' W 080°09'0 0.0
2018-Feb-22 16:41N 25°48' W 080°09'0 0.0
2018-Feb-22 16:26N 25°48' W 080°09'0 0.0
2018-Feb-22 15:59N 25°48' W 080°09'0 0.0
2018-Feb-22 15:27N 25°48' W 080°09'0 0.0
2018-Feb-22 14:32N 25°48' W 080°09'0 0.0
2018-Feb-22 13:47N 25°48' W 080°09'0 0.0
2018-Feb-22 13:14N 25°48' W 080°09'0 0.0
2018-Feb-22 12:59N 25°48' W 080°09'0 0.0
2018-Feb-22 12:29N 25°48' W 080°09'0 0.0
2018-Feb-22 11:50N 25°48' W 080°09'0 0.0
2018-Feb-22 11:26N 25°48' W 080°09'0 0.0
2018-Feb-22 10:50N 25°48' W 080°09'0 0.0
2018-Feb-22 10:17N 25°48' W 080°09'0 0.0
2018-Feb-22 09:50N 25°48' W 080°09'0 0.0
2018-Feb-22 09:23N 25°48' W 080°09'0 0.0
2018-Feb-22 08:47N 25°48' W 080°09'0 0.0
2018-Feb-22 08:23N 25°48' W 080°09'0 0.0
2018-Feb-22 07:53N 25°48' W 080°09'0 0.0
2018-Feb-22 07:11N 25°48' W 080°09'0 0.0
2018-Feb-22 06:53N 25°48' W 080°09'0 0.0
2018-Feb-22 06:26N 25°48' W 080°09'0 0.0
2018-Feb-22 05:56N 25°48' W 080°09'0 0.0
2018-Feb-22 05:26N 25°48' W 080°09'0 0.0
2018-Feb-22 04:56N 25°48' W 080°09'0 0.0
2018-Feb-22 04:29N 25°48' W 080°09'0 0.0
2018-Feb-22 03:59N 25°48' W 080°09'0 0.0
2018-Feb-22 03:29N 25°48' W 080°09'0 0.0
2018-Feb-22 02:59N 25°48' W 080°09'0 0.0
2018-Feb-22 02:29N 25°48' W 080°09'0 0.0
2018-Feb-22 01:59N 25°48' W 080°09'0 0.0
2018-Feb-22 01:20N 25°48' W 080°09'0 0.0
2018-Feb-22 00:56N 25°48' W 080°09'0 0.2
2018-Feb-22 00:29N 25°48' W 080°09'2 3.6
2018-Feb-21 23:57N 25°47' W 080°11'3 5.3
2018-Feb-21 23:23N 25°44' W 080°11'3 6.8
2018-Feb-21 23:00N 25°42' W 080°11'0 0.0
2018-Feb-21 21:53N 25°42' W 080°11'0 0.0
2018-Feb-21 21:23N 25°42' W 080°11'0 0.0
2018-Feb-21 20:56N 25°42' W 080°11'0 0.0
2018-Feb-21 20:14N 25°42' W 080°11'0 0.0
2018-Feb-21 19:53N 25°42' W 080°11'0 0.0
2018-Feb-21 19:29N 25°42' W 080°11'1 1.1
2018-Feb-21 18:28N 25°41' W 080°11'3 6.7
2018-Feb-21 17:59N 25°39' W 080°08'  
2018-Feb-17 16:34N 25°41' W 080°04'317.9
2018-Feb-17 16:26N 25°44' W 080°04'717.0
2018-Feb-17 16:00N 25°51' W 080°04'1017.5
2018-Feb-17 15:24N 26°01' W 080°05'5 7.9
2018-Feb-17 14:46N 26°06' W 080°07'0 0.1
2018-Feb-17 14:29N 26°06' W 080°07'0 0.6
2018-Feb-17 13:58N 26°06' W 080°07'2 2.9
2018-Feb-17 13:25N 26°07' W 080°09'2 3.3
2018-Feb-17 12:58N 26°06' W 080°10'1 3.2
2018-Feb-17 12:30N 26°05' W 080°11'0 0.0
2018-Feb-17 11:57N 26°05' W 080°11'0 0.0
2018-Feb-17 11:30N 26°05' W 080°11'0 0.0
2018-Feb-17 11:00N 26°05' W 080°11'0 0.0
2018-Feb-17 10:27N 26°05' W 080°11'0 0.0
2018-Feb-17 09:58N 26°05' W 080°11'0 0.0
2018-Feb-17 09:27N 26°05' W 080°11'0 0.0
2018-Feb-17 08:54N 26°05' W 080°11'0 0.0
2018-Feb-17 08:18N 26°05' W 080°11'0 0.0
2018-Feb-17 07:48N 26°05' W 080°11'0 0.0
2018-Feb-17 07:30N 26°05' W 080°11'0 0.0
2018-Feb-17 07:00N 26°05' W 080°11'0 0.0
2018-Feb-17 06:30N 26°05' W 080°11'0 0.0
2018-Feb-17 06:00N 26°05' W 080°11'0 0.0
2018-Feb-17 05:21N 26°05' W 080°11'0 0.0
2018-Feb-17 05:00N 26°05' W 080°11'0 0.0
2018-Feb-17 04:00N 26°05' W 080°11'0 0.0
2018-Feb-17 03:09N 26°05' W 080°11'0 0.0
2018-Feb-17 02:39N 26°05' W 080°11'0 0.0
2018-Feb-17 02:21N 26°05' W 080°11'0 0.0
2018-Feb-17 01:51N 26°05' W 080°11'0 0.0
2018-Feb-17 01:18N 26°05' W 080°11'0 0.0
2018-Feb-17 00:54N 26°05' W 080°11'0 0.0
2018-Feb-17 00:21N 26°05' W 080°11'0 0.0
2018-Feb-16 23:58N 26°05' W 080°11'0 0.0
2018-Feb-16 22:54N 26°05' W 080°11'0 0.0
2018-Feb-16 22:06N 26°05' W 080°11'0 0.1
2018-Feb-16 21:58N 26°05' W 080°11'0 0.0
2018-Feb-16 21:24N 26°05' W 080°11'0 0.0
2018-Feb-16 20:53N 26°05' W 080°11'0 0.0
2018-Feb-16 20:29N 26°05' W 080°11'0 0.0
2018-Feb-16 19:59N 26°05' W 080°11'0 0.0
2018-Feb-16 19:30N 26°05' W 080°11'0 0.0
2018-Feb-16 18:59N 26°05' W 080°11'0 0.0
2018-Feb-16 18:29N 26°05' W 080°11'0 0.0
2018-Feb-16 17:44N 26°05' W 080°11'0 0.0
2018-Feb-16 17:11N 26°05' W 080°11'0 0.0
2018-Feb-16 16:41N 26°05' W 080°11'0 0.0
2018-Feb-16 16:08N 26°05' W 080°11'0 0.0
2018-Feb-16 15:35N 26°05' W 080°11'0 0.0
2018-Feb-16 15:22N 26°05' W 080°11'0 0.0
2018-Feb-16 14:47N 26°05' W 080°11'0 0.0
2018-Feb-16 14:29N 26°05' W 080°11'0 0.0
2018-Feb-16 13:59N 26°05' W 080°11'0 0.0
2018-Feb-16 13:30N 26°05' W 080°11'0 0.0
2018-Feb-16 13:00N 26°05' W 080°11'0 0.0
2018-Feb-16 12:30N 26°05' W 080°11'0 0.0
2018-Feb-16 12:00N 26°05' W 080°11'0 0.0
2018-Feb-16 11:28N 26°05' W 080°11'0 0.0
2018-Feb-16 10:52N 26°05' W 080°11'0 0.0
2018-Feb-16 10:04N 26°05' W 080°11'0 0.0
2018-Feb-16 09:52N 26°05' W 080°11'0 0.0
2018-Feb-16 09:18N 26°05' W 080°11'0 0.0
2018-Feb-16 08:12N 26°05' W 080°11'0 0.0
2018-Feb-16 07:24N 26°05' W 080°11'0 0.0
2018-Feb-16 06:54N 26°05' W 080°11'0 0.0
2018-Feb-16 06:24N 26°05' W 080°11'0 0.0
2018-Feb-16 05:52N 26°05' W 080°11'0 0.0
2018-Feb-16 05:25N 26°05' W 080°11'0 0.0
2018-Feb-16 04:52N 26°05' W 080°11'0 0.0
2018-Feb-16 04:16N 26°05' W 080°11'0 0.0
2018-Feb-16 03:46N 26°05' W 080°11'0 0.0
2018-Feb-16 03:28N 26°05' W 080°11'0 0.0
2018-Feb-16 02:49N 26°05' W 080°11'0 0.0
2018-Feb-16 02:28N 26°05' W 080°11'0 0.0
2018-Feb-16 01:59N 26°05' W 080°11'0 0.0
2018-Feb-16 01:29N 26°05' W 080°11'0 0.0
2018-Feb-16 00:53N 26°05' W 080°11'0 0.0
2018-Feb-16 00:29N 26°05' W 080°11'0 0.0
2018-Feb-15 23:53N 26°05' W 080°11'0 0.0
2018-Feb-15 23:26N 26°05' W 080°11'0 0.0
2018-Feb-15 22:56N 26°05' W 080°11'0 0.0
2018-Feb-15 22:23N 26°05' W 080°11'0 0.0
2018-Feb-15 21:59N 26°05' W 080°11'0 0.0
2018-Feb-15 20:38N 26°05' W 080°11'0 0.0
2018-Feb-15 20:26N 26°05' W 080°11'0 0.0
2018-Feb-15 19:56N 26°05' W 080°11'0 0.0
2018-Feb-15 19:31N 26°05' W 080°11'0 0.0
2018-Feb-15 18:57N 26°05' W 080°11'0 0.0
2018-Feb-15 18:30N 26°05' W 080°11'0 0.0
2018-Feb-15 17:46N 26°05' W 080°11'0 0.0
2018-Feb-15 17:28N 26°05' W 080°11'0 0.0
2018-Feb-15 16:49N 26°05' W 080°11'0 0.0
2018-Feb-15 16:16N 26°05' W 080°11'0 0.0
2018-Feb-15 15:58N 26°05' W 080°11'0 0.0
2018-Feb-15 15:25N 26°05' W 080°11'0 0.0
2018-Feb-15 14:55N 26°05' W 080°11'0 0.0
2018-Feb-15 13:52N 26°05' W 080°11'0 0.0
2018-Feb-15 13:28N 26°05' W 080°11'0 0.0
2018-Feb-15 12:35N 26°05' W 080°11'0 0.0
2018-Feb-15 12:18N 26°05' W 080°11'0 0.0
2018-Feb-15 11:58N 26°05' W 080°11'0 0.0
2018-Feb-15 10:53N 26°05' W 080°11'0 0.0
2018-Feb-15 10:15N 26°05' W 080°11'0 0.0
2018-Feb-15 10:00N 26°05' W 080°11'0 0.0
2018-Feb-15 09:30N 26°05' W 080°11'0 0.0
2018-Feb-15 09:00N 26°05' W 080°11'0 0.0
2018-Feb-15 08:21N 26°05' W 080°11'0 0.0
2018-Feb-15 07:51N 26°05' W 080°11'0 0.0
2018-Feb-15 07:29N 26°05' W 080°11'0 0.0
2018-Feb-15 06:32N 26°05' W 080°11'0 0.0
2018-Feb-15 06:20N 26°05' W 080°11'0 0.0
2018-Feb-15 05:54N 26°05' W 080°11'0 0.0
2018-Feb-15 05:20N 26°05' W 080°11'0 0.0
2018-Feb-15 04:51N 26°05' W 080°11'0 0.0
2018-Feb-15 04:28N 26°05' W 080°11'0 0.0
2018-Feb-15 03:43N 26°05' W 080°11'0 0.0
2018-Feb-15 03:19N 26°05' W 080°11'0 0.0
2018-Feb-15 02:55N 26°05' W 080°11'0 0.0
2018-Feb-15 02:25N 26°05' W 080°11'0 0.0
2018-Feb-15 01:55N 26°05' W 080°11'0 0.0
2018-Feb-15 01:24N 26°05' W 080°11'0 0.0
2018-Feb-15 00:54N 26°05' W 080°11'0 0.0
2018-Feb-15 00:24N 26°05' W 080°11'0 0.0
2018-Feb-14 23:57N 26°05' W 080°11'0 0.0
2018-Feb-14 23:24N 26°05' W 080°11'0 0.0
2018-Feb-14 23:00N 26°05' W 080°11'0 0.0
2018-Feb-14 22:30N 26°05' W 080°11'0 0.0
2018-Feb-14 21:56N 26°05' W 080°11'0 0.0
2018-Feb-14 21:26N 26°05' W 080°11'0 0.0
2018-Feb-14 20:41N 26°05' W 080°11'0 0.0
2018-Feb-14 20:29N 26°05' W 080°11'  
Track history (hours):
 
Tides and Currents Weather Stations Pressure Air Temp Water Temp Dewpoint Dewpoint Depression Visibility Wind Speed Wind Dir Waves Ship Positions

Far Niente

Last reported at 2018-Feb-23 06:30 UTC. Time now 2018-Feb-23 06:59 UTC.
Position N 25°48' W 080°09'.

Length 34 m.

Type: Pleasure craft. MMSI: 339511000.

Date/timePositionNaut miles runAvg speedWind from/ knotsBaromVisibWave heightAir tempDewpointWater temp
2018-Feb-23 06:30N 25°48' W 080°09'0 0.0
2018-Feb-23 05:48N 25°48' W 080°09'0 0.0
2018-Feb-23 05:30N 25°48' W 080°09'0 0.0
2018-Feb-23 05:00N 25°48' W 080°09'0 0.0
2018-Feb-23 04:00N 25°48' W 080°09'0 0.0
2018-Feb-23 03:21N 25°48' W 080°09'0 0.0
2018-Feb-23 03:00N 25°48' W 080°09'0 0.0
2018-Feb-23 02:30N 25°48' W 080°09'0 0.0
2018-Feb-23 01:35N 25°48' W 080°09'0 0.0
2018-Feb-23 01:20N 25°48' W 080°09'0 0.0
2018-Feb-23 00:50N 25°48' W 080°09'0 0.0
2018-Feb-23 00:23N 25°48' W 080°09'0 0.0
2018-Feb-22 23:50N 25°48' W 080°09'0 0.0
2018-Feb-22 23:23N 25°48' W 080°09'0 0.0
2018-Feb-22 22:06N 25°48' W 080°09'0 0.0
2018-Feb-22 21:54N 25°48' W 080°09'0 0.0
2018-Feb-22 21:23N 25°48' W 080°09'0 0.0
2018-Feb-22 20:56N 25°48' W 080°09'0 0.0
2018-Feb-22 20:27N 25°48' W 080°09'0 0.0
2018-Feb-22 19:56N 25°48' W 080°09'0 0.0
2018-Feb-22 19:11N 25°48' W 080°09'0 0.0
2018-Feb-22 18:44N 25°48' W 080°09'0 0.0
2018-Feb-22 18:26N 25°48' W 080°09'0 0.0
2018-Feb-22 17:56N 25°48' W 080°09'0 0.0
2018-Feb-22 17:29N 25°48' W 080°09'0 0.0
2018-Feb-22 16:41N 25°48' W 080°09'0 0.0
2018-Feb-22 16:26N 25°48' W 080°09'0 0.0
2018-Feb-22 15:59N 25°48' W 080°09'0 0.0
2018-Feb-22 15:27N 25°48' W 080°09'0 0.0
2018-Feb-22 14:32N 25°48' W 080°09'0 0.0
2018-Feb-22 13:47N 25°48' W 080°09'0 0.0
2018-Feb-22 13:14N 25°48' W 080°09'0 0.0
2018-Feb-22 12:59N 25°48' W 080°09'0 0.0
2018-Feb-22 12:29N 25°48' W 080°09'0 0.0
2018-Feb-22 11:50N 25°48' W 080°09'0 0.0
2018-Feb-22 11:26N 25°48' W 080°09'0 0.0
2018-Feb-22 10:50N 25°48' W 080°09'0 0.0
2018-Feb-22 10:17N 25°48' W 080°09'0 0.0
2018-Feb-22 09:50N 25°48' W 080°09'0 0.0
2018-Feb-22 09:23N 25°48' W 080°09'0 0.0
2018-Feb-22 08:47N 25°48' W 080°09'0 0.0
2018-Feb-22 08:23N 25°48' W 080°09'0 0.0
2018-Feb-22 07:53N 25°48' W 080°09'0 0.0
2018-Feb-22 07:11N 25°48' W 080°09'0 0.0
2018-Feb-22 06:53N 25°48' W 080°09'0 0.0
2018-Feb-22 06:26N 25°48' W 080°09'0 0.0
2018-Feb-22 05:56N 25°48' W 080°09'0 0.0
2018-Feb-22 05:26N 25°48' W 080°09'0 0.0
2018-Feb-22 04:56N 25°48' W 080°09'0 0.0
2018-Feb-22 04:29N 25°48' W 080°09'0 0.0
2018-Feb-22 03:59N 25°48' W 080°09'0 0.0
2018-Feb-22 03:29N 25°48' W 080°09'0 0.0
2018-Feb-22 02:59N 25°48' W 080°09'0 0.0
2018-Feb-22 02:29N 25°48' W 080°09'0 0.0
2018-Feb-22 01:59N 25°48' W 080°09'0 0.0
2018-Feb-22 01:20N 25°48' W 080°09'0 0.0
2018-Feb-22 00:56N 25°48' W 080°09'0 0.2
2018-Feb-22 00:29N 25°48' W 080°09'2 3.6
2018-Feb-21 23:57N 25°47' W 080°11'3 5.3
2018-Feb-21 23:23N 25°44' W 080°11'3 6.8
2018-Feb-21 23:00N 25°42' W 080°11'0 0.0
2018-Feb-21 21:53N 25°42' W 080°11'0 0.0
2018-Feb-21 21:23N 25°42' W 080°11'0 0.0
2018-Feb-21 20:56N 25°42' W 080°11'0 0.0
2018-Feb-21 20:14N 25°42' W 080°11'0 0.0
2018-Feb-21 19:53N 25°42' W 080°11'0 0.0
2018-Feb-21 19:29N 25°42' W 080°11'1 1.1
2018-Feb-21 18:28N 25°41' W 080°11'3 6.7
2018-Feb-21 17:59N 25°39' W 080°08'  
2018-Feb-17 16:34N 25°41' W 080°04'317.9
2018-Feb-17 16:26N 25°44' W 080°04'717.0
2018-Feb-17 16:00N 25°51' W 080°04'1017.5
2018-Feb-17 15:24N 26°01' W 080°05'5 7.9
2018-Feb-17 14:46N 26°06' W 080°07'0 0.1
2018-Feb-17 14:29N 26°06' W 080°07'0 0.6
2018-Feb-17 13:58N 26°06' W 080°07'2 2.9
2018-Feb-17 13:25N 26°07' W 080°09'2 3.3
2018-Feb-17 12:58N 26°06' W 080°10'1 3.2
2018-Feb-17 12:30N 26°05' W 080°11'0 0.0
2018-Feb-17 11:57N 26°05' W 080°11'0 0.0
2018-Feb-17 11:30N 26°05' W 080°11'0 0.0
2018-Feb-17 11:00N 26°05' W 080°11'0 0.0
2018-Feb-17 10:27N 26°05' W 080°11'0 0.0
2018-Feb-17 09:58N 26°05' W 080°11'0 0.0
2018-Feb-17 09:27N 26°05' W 080°11'0 0.0
2018-Feb-17 08:54N 26°05' W 080°11'0 0.0
2018-Feb-17 08:18N 26°05' W 080°11'0 0.0
2018-Feb-17 07:48N 26°05' W 080°11'0 0.0
2018-Feb-17 07:30N 26°05' W 080°11'0 0.0
2018-Feb-17 07:00N 26°05' W 080°11'0 0.0
2018-Feb-17 06:30N 26°05' W 080°11'0 0.0
2018-Feb-17 06:00N 26°05' W 080°11'0 0.0
2018-Feb-17 05:21N 26°05' W 080°11'0 0.0
2018-Feb-17 05:00N 26°05' W 080°11'0 0.0
2018-Feb-17 04:00N 26°05' W 080°11'0 0.0
2018-Feb-17 03:09N 26°05' W 080°11'0 0.0
2018-Feb-17 02:39N 26°05' W 080°11'0 0.0
2018-Feb-17 02:21N 26°05' W 080°11'0 0.0
2018-Feb-17 01:51N 26°05' W 080°11'0 0.0
2018-Feb-17 01:18N 26°05' W 080°11'0 0.0
2018-Feb-17 00:54N 26°05' W 080°11'0 0.0
2018-Feb-17 00:21N 26°05' W 080°11'0 0.0
2018-Feb-16 23:58N 26°05' W 080°11'0 0.0
2018-Feb-16 22:54N 26°05' W 080°11'0 0.0
2018-Feb-16 22:06N 26°05' W 080°11'0 0.1
2018-Feb-16 21:58N 26°05' W 080°11'0 0.0
2018-Feb-16 21:24N 26°05' W 080°11'0 0.0
2018-Feb-16 20:53N 26°05' W 080°11'0 0.0
2018-Feb-16 20:29N 26°05' W 080°11'0 0.0
2018-Feb-16 19:59N 26°05' W 080°11'0 0.0
2018-Feb-16 19:30N 26°05' W 080°11'0 0.0
2018-Feb-16 18:59N 26°05' W 080°11'0 0.0
2018-Feb-16 18:29N 26°05' W 080°11'0 0.0
2018-Feb-16 17:44N 26°05' W 080°11'0 0.0
2018-Feb-16 17:11N 26°05' W 080°11'0 0.0
2018-Feb-16 16:41N 26°05' W 080°11'0 0.0
2018-Feb-16 16:08N 26°05' W 080°11'0 0.0
2018-Feb-16 15:35N 26°05' W 080°11'0 0.0
2018-Feb-16 15:22N 26°05' W 080°11'0 0.0
2018-Feb-16 14:47N 26°05' W 080°11'0 0.0
2018-Feb-16 14:29N 26°05' W 080°11'0 0.0
2018-Feb-16 13:59N 26°05' W 080°11'0 0.0
2018-Feb-16 13:30N 26°05' W 080°11'0 0.0
2018-Feb-16 13:00N 26°05' W 080°11'0 0.0
2018-Feb-16 12:30N 26°05' W 080°11'0 0.0
2018-Feb-16 12:00N 26°05' W 080°11'0 0.0
2018-Feb-16 11:28N 26°05' W 080°11'0 0.0
2018-Feb-16 10:52N 26°05' W 080°11'0 0.0
2018-Feb-16 10:04N 26°05' W 080°11'0 0.0
2018-Feb-16 09:52N 26°05' W 080°11'0 0.0
2018-Feb-16 09:18N 26°05' W 080°11'0 0.0
2018-Feb-16 08:12N 26°05' W 080°11'0 0.0
2018-Feb-16 07:24N 26°05' W 080°11'0 0.0
2018-Feb-16 06:54N 26°05' W 080°11'0 0.0
2018-Feb-16 06:24N 26°05' W 080°11'0 0.0
2018-Feb-16 05:52N 26°05' W 080°11'0 0.0
2018-Feb-16 05:25N 26°05' W 080°11'0 0.0
2018-Feb-16 04:52N 26°05' W 080°11'0 0.0
2018-Feb-16 04:16N 26°05' W 080°11'0 0.0
2018-Feb-16 03:46N 26°05' W 080°11'0 0.0
2018-Feb-16 03:28N 26°05' W 080°11'0 0.0
2018-Feb-16 02:49N 26°05' W 080°11'0 0.0
2018-Feb-16 02:28N 26°05' W 080°11'0 0.0
2018-Feb-16 01:59N 26°05' W 080°11'0 0.0
2018-Feb-16 01:29N 26°05' W 080°11'0 0.0
2018-Feb-16 00:53N 26°05' W 080°11'0 0.0
2018-Feb-16 00:29N 26°05' W 080°11'0 0.0
2018-Feb-15 23:53N 26°05' W 080°11'0 0.0
2018-Feb-15 23:26N 26°05' W 080°11'0 0.0
2018-Feb-15 22:56N 26°05' W 080°11'0 0.0
2018-Feb-15 22:23N 26°05' W 080°11'0 0.0
2018-Feb-15 21:59N 26°05' W 080°11'0 0.0
2018-Feb-15 20:38N 26°05' W 080°11'0 0.0
2018-Feb-15 20:26N 26°05' W 080°11'0 0.0
2018-Feb-15 19:56N 26°05' W 080°11'0 0.0
2018-Feb-15 19:31N 26°05' W 080°11'0 0.0
2018-Feb-15 18:57N 26°05' W 080°11'0 0.0
2018-Feb-15 18:30N 26°05' W 080°11'0 0.0
2018-Feb-15 17:46N 26°05' W 080°11'0 0.0
2018-Feb-15 17:28N 26°05' W 080°11'0 0.0
2018-Feb-15 16:49N 26°05' W 080°11'0 0.0
2018-Feb-15 16:16N 26°05' W 080°11'0 0.0
2018-Feb-15 15:58N 26°05' W 080°11'0 0.0
2018-Feb-15 15:25N 26°05' W 080°11'0 0.0
2018-Feb-15 14:55N 26°05' W 080°11'0 0.0
2018-Feb-15 13:52N 26°05' W 080°11'0 0.0
2018-Feb-15 13:28N 26°05' W 080°11'0 0.0
2018-Feb-15 12:35N 26°05' W 080°11'0 0.0
2018-Feb-15 12:18N 26°05' W 080°11'0 0.0
2018-Feb-15 11:58N 26°05' W 080°11'0 0.0
2018-Feb-15 10:53N 26°05' W 080°11'0 0.0
2018-Feb-15 10:15N 26°05' W 080°11'0 0.0
2018-Feb-15 10:00N 26°05' W 080°11'0 0.0
2018-Feb-15 09:30N 26°05' W 080°11'0 0.0
2018-Feb-15 09:00N 26°05' W 080°11'0 0.0
2018-Feb-15 08:21N 26°05' W 080°11'0 0.0
2018-Feb-15 07:51N 26°05' W 080°11'0 0.0
2018-Feb-15 07:29N 26°05' W 080°11'0 0.0
2018-Feb-15 06:32N 26°05' W 080°11'0 0.0
2018-Feb-15 06:20N 26°05' W 080°11'0 0.0
2018-Feb-15 05:54N 26°05' W 080°11'0 0.0
2018-Feb-15 05:20N 26°05' W 080°11'0 0.0
2018-Feb-15 04:51N 26°05' W 080°11'0 0.0
2018-Feb-15 04:28N 26°05' W 080°11'0 0.0
2018-Feb-15 03:43N 26°05' W 080°11'0 0.0
2018-Feb-15 03:19N 26°05' W 080°11'0 0.0
2018-Feb-15 02:55N 26°05' W 080°11'0 0.0
2018-Feb-15 02:25N 26°05' W 080°11'0 0.0
2018-Feb-15 01:55N 26°05' W 080°11'0 0.0
2018-Feb-15 01:24N 26°05' W 080°11'0 0.0
2018-Feb-15 00:54N 26°05' W 080°11'0 0.0
2018-Feb-15 00:24N 26°05' W 080°11'0 0.0
2018-Feb-14 23:57N 26°05' W 080°11'0 0.0
2018-Feb-14 23:24N 26°05' W 080°11'0 0.0
2018-Feb-14 23:00N 26°05' W 080°11'0 0.0
2018-Feb-14 22:30N 26°05' W 080°11'0 0.0
2018-Feb-14 21:56N 26°05' W 080°11'0 0.0
2018-Feb-14 21:26N 26°05' W 080°11'0 0.0
2018-Feb-14 20:41N 26°05' W 080°11'0 0.0
2018-Feb-14 20:29N 26°05' W 080°11'  

Dump ship's entire track history